Accueil
METAR-TAF:

METAR-TAF

Aéroports :

Coffeyville, Kansas, États-Unis

latitude: 37-05-28N, longitude: 095-33-59W, altitude: 229 m

Observation

Le bulletin a été fait il y a 24 minutes, à 11:58 UTC
Vent 9 kt de est/nord-est
Température 20°C
Humidité 88%
Pression 1018 hPa
Visibilité: 9.7 km
Quelques nuages à une hauteur de 500 ft
Nuages fragmentés à une hauteur de 1900 ft
Ciel couvert à une hauteur de 8500 ft
orage à proximité, pluie faible, brume

METAR: KCFV 211158Z AUTO 06009KT 6SM VCTS -RA BR FEW005 BKN019 OVC085 20/18 A3006 RMK AO2 LTG DSNT E AND SW P0001 T02000183

Heure: 07:22 (12:22 UTC)


TAF: absent

Observations et prévisions météorologiques de plus de 4000 aéroports (messages METAR et TAF).

Les stations disponibles sont représentées par des disques jaunes et rouges sur la carte.

Passer la souris dessus pour voir le nom de la station.

Cliquer dessus pour voir les observations et prévisions météorologiques.

Pour changer de carte: cliquez sur les boutons verts avec une croix noire pour zoomer, sur le bouton vert avec un tiret pour effectuer un zoom arrière, ou sur les flèches vertes pour les cartes adjacentes.


METAR-TAF: